Observations de surface / France / LFMK

Québec | Canada | États-Unis | France | UK | Europe | Ailleurs

Affichage: Infos & localisation pour LFMK | Aide pour décoder les METARs

LFMK CARCASSONNE/SALVAZA -- FR
Raw surface observations for station LFMK
LFMK 211700Z AUTO 28001KT CAVOK 06/00 Q1021 NOSIG=
LFMK 211630Z AUTO VRB01KT CAVOK 07/M00 Q1021 NOSIG=
LFMK 211600Z AUTO 22003KT CAVOK 09/01 Q1020 NOSIG=
LFMK 211530Z AUTO VRB03KT CAVOK 10/00 Q1020 NOSIG=
LFMK 211500Z AUTO VRB02KT CAVOK 11/00 Q1021 NOSIG=
LFMK 211430Z AUTO 15003KT 100V210 CAVOK 11/M01 Q1021 NOSIG=
LFMK 211400Z AUTO VRB03KT 9999 BKN050 BKN190 BKN240 10/M00 Q1021 NOSIG=
LFMK 211330Z AUTO 12003KT 080V170 9999 OVC050 10/M01 Q1021 NOSIG=
LFMK 211300Z AUTO 12005KT 060V180 9999 OVC049 10/M01 Q1021 NOSIG=
LFMK 211230Z AUTO 11006KT 080V160 9999 SCT048 BKN210 10/M01 Q1021 NOSIG=
LFMK 211200Z AUTO 10009KT 080V140 9999 FEW046 SCT078 10/M00 Q1022 NOSIG=
LFMK 211130Z AUTO 11007KT 080V160 9999 SCT070 BKN230 09/M00 Q1022 NOSIG=
LFMK 211100Z AUTO 10007KT 080V140 9999 FEW046 09/M01 Q1023 NOSIG=
LFMK 211030Z AUTO 09005KT 060V120 9999 SCT074 09/02 Q1023 NOSIG=
LFMK 211000Z AUTO VRB01KT 9999 FEW074 SCT230 06/01 Q1023 NOSIG=
LFMK 210930Z AUTO VRB01KT 9999 SCT040 BKN070 05/02 Q1023 NOSIG=
LFMK 210900Z AUTO VRB03KT 9999 OVC068 03/01 Q1023 NOSIG=
LFMK 210830Z AUTO VRB01KT 9999 SCT038 OVC066 03/01 Q1023 NOSIG=
LFMK 210800Z AUTO VRB02KT 9999 OVC038 02/01 Q1023 NOSIG=
LFMK 210730Z AUTO VRB01KT 9999 BKN043 OVC054 00/M01 Q1022 NOSIG=
LFMK 210700Z AUTO 17002KT 9999 FEW036 BKN054 01/M00 Q1022 NOSIG=
LFMK 210630Z AUTO 16001KT 9999 FEW037 SCT060 00/M01 Q1023 NOSIG=
LFMK 210600Z AUTO VRB02KT 9999 FEW036 BKN060 00/M01 Q1023 NOSIG=
LFMK 210530Z AUTO VRB02KT 9999 FEW056 00/M01 Q1022 NOSIG=
LFMK 210500Z AUTO 15002KT 9999 SCT052 00/M01 Q1023 NOSIG=
LFMK 210430Z AUTO 00000KT 9999 FEW039 BKN050 01/M01 Q1023 NOSIG=
LFMK 210400Z AUTO 00000KT 9999 BKN043 02/M01 Q1023 NOSIG=
LFMK 210330Z AUTO VRB02KT 9999 FEW064 03/M01 Q1023 NOSIG=
LFMK 210300Z AUTO 14004KT 110V180 9999 FEW048 04/00 Q1023 NOSIG=
LFMK 210230Z AUTO 13004KT 090V180 9999 SCT048 BKN068 BKN078 05/00 Q1023 NOSIG=
LFMK 210200Z AUTO VRB03KT 9999 FEW037 SCT046 BKN064 04/01 Q1023=
LFMK 210130Z AUTO VRB03KT 9999 BKN037 BKN056 OVC076 04/02 Q1023=
LFMK 210100Z AUTO 12004KT 070V150 9999 BKN031 BKN042 BKN052 04/02 Q1024=
LFMK 210030Z AUTO 13004KT 090V170 9999 -RA BKN027 OVC035 05/02 Q1024=
LFMK 202330Z AUTO 14004KT 060V180 9999 FEW027 SCT032 OVC039 05/01 Q1024=
LFMK 202300Z AUTO 13005KT 100V170 9999 SCT030 BKN037 OVC072 05/00 Q1025=
LFMK 202230Z AUTO 14005KT 100V180 9999 BKN030 BKN035 BKN047 05/00 Q1025=
LFMK 202200Z AUTO 13004KT 090V170 9999 BKN030 OVC066 05/00 Q1025=
LFMK 202130Z AUTO 17003KT 140V200 9999 SCT032 BKN074 04/02 Q1025=
LFMK 202100Z AUTO 18004KT 140V210 9999 OVC033 04/02 Q1025=
LFMK 202030Z AUTO 17004KT 9999 FEW033 BKN064 BKN088 04/02 Q1025=
LFMK 202000Z AUTO 17004KT 130V200 9999 SCT035 SCT049 BKN058 05/03 Q1025=
LFMK 201930Z AUTO 17004KT 9999 FEW032 BKN056 BKN088 05/03 Q1024=
LFMK 201900Z AUTO 16005KT 9999 BKN034 BKN052 OVC064 05/03 Q1024=
LFMK 201830Z AUTO 16006KT 9999 -RA BKN029 OVC034 06/03 Q1024=
LFMK 201800Z AUTO 14005KT 090V180 9999 BKN029 BKN034 BKN040 06/03 Q1024 TEMPO DZ=
LFMK 201730Z AUTO 15005KT 120V180 9999 -RA BKN032 OVC040 06/03 Q1024 TEMPO DZ=